createdAt,value
2022-09-06T00:00:14.314Z,97661.41
2022-09-06T00:02:42.519Z,97653.34
2022-09-06T00:05:10.996Z,97654.31
2022-09-06T00:07:39.083Z,97649.81
2022-09-06T00:10:09.248Z,97648.94
2022-09-06T00:12:37.505Z,97649.81
2022-09-06T00:15:06.634Z,97655.19
2022-09-06T00:17:34.924Z,97654.31
2022-09-06T00:20:03.600Z,97648.06
2022-09-06T00:22:31.977Z,97648.94
2022-09-06T00:25:00.113Z,97650.75
2022-09-06T00:27:29.656Z,97640.88
2022-09-06T00:29:57.759Z,97642.69
2022-09-06T00:32:25.980Z,97648.06
2022-09-06T00:34:54.105Z,97638.28
2022-09-06T00:37:22.238Z,97640.00
2022-09-06T00:39:50.421Z,97636.44
2022-09-06T00:42:18.583Z,97631.06
2022-09-06T00:44:48.068Z,97627.53
2022-09-06T00:47:16.237Z,97630.22
2022-09-06T00:49:45.662Z,97623.97
2022-09-06T00:52:16.604Z,97624.84
2022-09-06T00:54:44.793Z,97623.97
2022-09-06T00:57:12.872Z,97628.47
2022-09-06T00:59:41.222Z,97626.66
2022-09-06T01:02:10.878Z,97629.34
2022-09-06T01:04:39.777Z,97630.28
2022-09-06T01:07:10.789Z,97623.97
2022-09-06T01:09:47.599Z,97623.09
2022-09-06T01:12:24.224Z,97616.84
2022-09-06T01:15:00.308Z,97624.91
2022-09-06T01:17:34.474Z,97615.16
2022-09-06T01:20:32.446Z,97610.63
2022-09-06T01:23:22.265Z,97602.56
2022-09-06T01:26:01.212Z,97601.81
2022-09-06T01:28:32.621Z,97601.81
2022-09-06T01:31:10.121Z,97599.13
2022-09-06T01:33:40.312Z,97599.13
2022-09-06T01:36:10.197Z,97599.13
2022-09-06T01:38:38.624Z,97602.66
2022-09-06T01:41:06.960Z,97602.75
2022-09-06T01:43:38.199Z,97607.19
2022-09-06T01:46:10.032Z,97597.38
2022-09-06T01:48:47.912Z,97602.66
2022-09-06T01:51:18.109Z,97593.75
2022-09-06T01:54:01.778Z,97601.81
2022-09-06T01:56:34.282Z,97597.38
2022-09-06T01:59:17.984Z,97600.06
2022-09-06T02:01:49.063Z,97597.38
2022-09-06T02:04:19.562Z,97596.50
2022-09-06T02:06:50.434Z,97590.28
2022-09-06T02:09:19.465Z,97587.59
2022-09-06T02:11:49.728Z,97585.84
2022-09-06T02:14:22.305Z,97586.72
2022-09-06T02:16:50.617Z,97584.03
2022-09-06T02:19:21.617Z,97582.28
2022-09-06T02:21:50.281Z,97579.63
2022-09-06T02:24:21.216Z,97578.66
2022-09-06T02:26:49.383Z,97575.09
2022-09-06T02:29:17.492Z,97579.63
2022-09-06T02:31:48.578Z,97585.00
2022-09-06T02:34:18.251Z,97584.16
2022-09-06T02:36:46.557Z,97576.94
2022-09-06T02:39:14.693Z,97575.09
2022-09-06T02:41:43.272Z,97576.94
2022-09-06T02:44:11.424Z,97573.41
2022-09-06T02:46:39.531Z,97579.63
2022-09-06T02:49:09.053Z,97577.03
2022-09-06T02:51:38.281Z,97574.22
2022-09-06T02:54:06.607Z,97568.97
2022-09-06T02:56:36.559Z,97575.22
2022-09-06T02:59:05.593Z,97576.16
2022-09-06T03:01:33.872Z,97573.47
2022-09-06T03:04:02.233Z,97586.06
2022-09-06T03:06:31.769Z,97585.09
2022-09-06T03:09:00.616Z,97591.34
2022-09-06T03:11:28.804Z,97581.53
2022-09-06T03:13:56.887Z,97584.22
2022-09-06T03:16:25.153Z,97590.56
2022-09-06T03:18:53.285Z,97581.53
2022-09-06T03:21:21.368Z,97578.00
2022-09-06T03:23:51.073Z,97571.75
2022-09-06T03:26:19.173Z,97567.31
2022-09-06T03:28:47.343Z,97569.06
2022-09-06T03:31:15.515Z,97569.06
2022-09-06T03:33:43.661Z,97573.56
2022-09-06T03:36:11.805Z,97567.31
2022-09-06T03:38:40.126Z,97563.69
2022-09-06T03:41:09.649Z,97567.31
2022-09-06T03:43:37.921Z,97562.81
2022-09-06T03:46:06.171Z,97561.13
2022-09-06T03:48:34.370Z,97564.63
2022-09-06T03:51:02.484Z,97564.63
2022-09-06T03:53:30.628Z,97561.94
2022-09-06T03:55:58.820Z,97567.31
2022-09-06T03:58:30.851Z,97561.94
2022-09-06T04:01:04.544Z,97564.63
2022-09-06T04:03:32.892Z,97564.63
2022-09-06T04:06:01.072Z,97564.63
2022-09-06T04:08:29.463Z,97569.19
2022-09-06T04:10:57.950Z,97569.19
2022-09-06T04:13:26.240Z,97563.81
2022-09-06T04:15:55.760Z,97557.56
2022-09-06T04:18:23.987Z,97563.81
2022-09-06T04:20:53.231Z,97554.88
2022-09-06T04:23:21.583Z,97554.88
2022-09-06T04:25:49.801Z,97562.06
2022-09-06T04:28:18.567Z,97558.50
2022-09-06T04:30:46.740Z,97555.81
2022-09-06T04:33:16.253Z,97554.00
2022-09-06T04:35:44.356Z,97551.41
2022-09-06T04:38:12.456Z,97554.97
2022-09-06T04:40:40.598Z,97552.28
2022-09-06T04:43:08.805Z,97551.31
2022-09-06T04:45:37.016Z,97551.41
2022-09-06T04:48:05.259Z,97556.78
2022-09-06T04:50:34.780Z,97554.09
2022-09-06T04:53:06.379Z,97553.22
2022-09-06T04:55:34.653Z,97548.72
2022-09-06T04:58:03.548Z,97559.47
2022-09-06T05:00:32.489Z,97559.47
2022-09-06T05:03:00.619Z,97553.22
2022-09-06T05:05:28.804Z,97541.59
2022-09-06T05:07:58.276Z,97549.59
2022-09-06T05:10:26.587Z,97553.13
2022-09-06T05:12:55.199Z,97554.09
2022-09-06T05:15:23.855Z,97559.47
2022-09-06T05:17:51.953Z,97553.13
2022-09-06T05:20:20.116Z,97557.66
2022-09-06T05:22:53.437Z,97567.44
2022-09-06T05:25:23.001Z,97563.09
2022-09-06T05:27:51.092Z,97556.97
2022-09-06T05:30:19.776Z,97562.44
2022-09-06T05:32:47.856Z,97560.72
2022-09-06T05:35:16.172Z,97561.78
2022-09-06T05:37:44.283Z,97561.97
2022-09-06T05:40:12.731Z,97559.47
2022-09-06T05:42:42.307Z,97555.06
2022-09-06T05:45:11.156Z,97556.91
2022-09-06T05:47:39.247Z,97554.28
2022-09-06T05:50:08.109Z,97557.19
2022-09-06T05:52:36.414Z,97558.06
2022-09-06T05:55:04.762Z,97558.13
2022-09-06T05:57:32.993Z,97560.91
2022-09-06T06:00:02.551Z,97561.88
2022-09-06T06:02:40.047Z,97563.81
2022-09-06T06:05:09.126Z,97562.16
2022-09-06T06:07:37.234Z,97559.59
2022-09-06T06:10:06.072Z,97556.94
2022-09-06T06:12:34.173Z,97559.72
2022-09-06T06:15:05.802Z,97552.63
2022-09-06T06:17:34.093Z,97550.91
2022-09-06T06:20:02.239Z,97550.03
2022-09-06T06:22:30.372Z,97548.09
2022-09-06T06:24:58.500Z,97551.75
2022-09-06T06:27:26.600Z,97551.00
2022-09-06T06:29:54.749Z,97555.50
2022-09-06T06:32:24.233Z,97554.63
2022-09-06T06:34:52.392Z,97552.91
2022-09-06T06:37:20.499Z,97552.91
2022-09-06T06:39:48.635Z,97553.78
2022-09-06T06:42:16.840Z,97554.72
2022-09-06T06:44:53.900Z,97543.97
2022-09-06T06:47:23.547Z,97542.28
2022-09-06T06:49:51.871Z,97545.13
2022-09-06T06:52:21.472Z,97547.91
2022-09-06T06:54:50.181Z,97541.69
2022-09-06T06:57:18.327Z,97549.63
2022-09-06T06:59:46.495Z,97548.59
2022-09-06T07:02:15.786Z,97547.66
2022-09-06T07:04:45.481Z,97552.91
2022-09-06T07:12:45.329Z,97547.34
2022-09-06T07:15:13.893Z,97558.00
2022-09-06T07:17:42.066Z,97557.25
2022-09-06T07:22:44.861Z,97562.50
2022-09-06T07:25:16.552Z,97551.75
2022-09-06T07:27:49.488Z,97545.41
2022-09-06T07:30:19.637Z,97548.03
2022-09-06T07:32:47.949Z,97546.16
2022-09-06T07:35:17.635Z,97544.31
2022-09-06T07:37:52.568Z,97542.59
2022-09-06T07:40:20.984Z,97551.53
2022-09-06T07:42:49.204Z,97548.72
2022-09-06T07:45:17.586Z,97552.28
2022-09-06T07:48:00.883Z,97546.91
2022-09-06T07:50:47.355Z,97548.63
2022-09-06T07:53:30.856Z,97544.03
2022-09-06T07:56:00.882Z,97545.00
2022-09-06T07:58:29.681Z,97544.13
2022-09-06T08:01:18.898Z,97553.91
2022-09-06T08:03:47.771Z,97545.00
2022-09-06T08:06:17.599Z,97547.59
2022-09-06T08:09:01.149Z,97537.72
2022-09-06T08:11:31.432Z,97543.91
2022-09-06T08:14:00.288Z,97533.19
2022-09-06T08:16:29.477Z,97541.16
2022-09-06T08:18:58.544Z,97537.50
2022-09-06T08:21:29.279Z,97538.38
2022-09-06T08:23:58.373Z,97538.28
2022-09-06T08:26:26.652Z,97540.09
2022-09-06T08:28:55.942Z,97530.22
2022-09-06T08:31:24.144Z,97537.31
2022-09-06T08:33:52.780Z,97533.75
2022-09-06T08:36:20.908Z,97532.91
2022-09-06T08:38:50.428Z,97537.31
2022-09-06T08:41:26.128Z,97529.25
2022-09-06T08:46:46.832Z,97531.09
2022-09-06T08:49:15.023Z,97529.34
2022-09-06T08:52:06.870Z,97524.84
2022-09-06T08:54:38.236Z,97524.84
2022-09-06T08:57:10.893Z,97529.34
2022-09-06T08:59:39.932Z,97528.38
2022-09-06T09:02:14.799Z,97524.72
2022-09-06T09:04:45.506Z,97524.72
2022-09-06T09:07:36.877Z,97507.78
2022-09-06T09:10:09.037Z,97515.72
2022-09-06T09:12:39.952Z,97519.19
2022-09-06T09:15:09.085Z,97518.97
2022-09-06T09:17:37.202Z,97517.91
2022-09-06T09:20:05.829Z,97508.81
2022-09-06T09:22:34.108Z,97501.50
2022-09-06T09:25:02.284Z,97510.34
2022-09-06T09:27:31.833Z,97505.72
2022-09-06T09:32:50.197Z,97500.91
2022-09-06T09:35:33.906Z,97491.78
2022-09-06T09:38:11.784Z,97492.56
2022-09-06T09:40:41.913Z,97492.38
2022-09-06T09:43:18.031Z,97487.84
2022-09-06T09:46:18.410Z,97485.06
2022-09-06T09:48:49.774Z,97482.28
2022-09-06T09:51:27.134Z,97481.28
2022-09-06T09:53:56.653Z,97474.97
2022-09-06T09:56:36.031Z,97475.72
2022-09-06T09:59:09.006Z,97471.22
2022-09-06T10:01:37.171Z,97474.75
2022-09-06T10:07:10.861Z,97463.94
2022-09-06T10:09:41.667Z,97464.75
2022-09-06T10:12:09.838Z,97461.13
2022-09-06T10:14:43.673Z,97452.19
2022-09-06T10:17:20.791Z,97457.56
2022-09-06T10:19:49.047Z,97458.31
2022-09-06T10:22:30.197Z,97454.78
2022-09-06T10:25:19.937Z,97452.94
2022-09-06T10:28:13.923Z,97452.00
2022-09-06T10:30:46.185Z,97453.72
2022-09-06T10:33:21.188Z,97447.38
2022-09-06T10:35:49.327Z,97451.91
2022-09-06T10:38:28.081Z,97447.47
2022-09-06T10:41:00.224Z,97447.47
2022-09-06T10:43:29.303Z,97448.34
2022-09-06T10:46:01.321Z,97441.16
2022-09-06T10:48:30.727Z,97438.44
2022-09-06T10:50:59.659Z,97433.06
2022-09-06T10:53:37.913Z,97436.63
2022-09-06T10:56:08.708Z,97432.97
2022-09-06T11:01:34.487Z,97429.22
2022-09-06T11:04:06.772Z,97432.75
2022-09-06T11:06:36.825Z,97426.41
2022-09-06T11:09:09.217Z,97423.72
2022-09-06T11:11:40.367Z,97419.22
2022-09-06T11:14:10.160Z,97421.91
2022-09-06T11:16:42.159Z,97419.22
2022-09-06T11:19:11.345Z,97421.91
2022-09-06T11:22:00.910Z,97412.88
2022-09-06T11:24:34.975Z,97414.59
2022-09-06T11:27:06.617Z,97416.31
2022-09-06T11:29:35.572Z,97410.06
2022-09-06T11:32:21.340Z,97412.75
2022-09-06T11:34:53.291Z,97406.44
2022-09-06T11:37:26.159Z,97404.59
2022-09-06T11:43:11.529Z,97395.56
2022-09-06T11:45:45.761Z,97394.59
2022-09-06T11:48:44.739Z,97400.00
2022-09-06T11:51:12.857Z,97403.50
2022-09-06T11:54:06.956Z,97393.63
2022-09-06T11:56:37.571Z,97383.75
2022-09-06T11:59:07.960Z,97383.75
2022-09-06T12:01:38.409Z,97375.59
2022-09-06T12:04:12.012Z,97380.97
2022-09-06T12:06:41.633Z,97372.91
2022-09-06T12:09:29.657Z,97370.22
2022-09-06T12:11:58.032Z,97372.78
2022-09-06T12:14:31.229Z,97371.97
2022-09-06T12:17:29.224Z,97358.50
2022-09-06T12:20:06.927Z,97360.22
2022-09-06T12:23:02.379Z,97360.22
2022-09-06T12:25:56.135Z,97353.03
2022-09-06T12:28:36.344Z,97352.03
2022-09-06T12:31:26.199Z,97345.72
2022-09-06T12:33:54.940Z,97344.72
2022-09-06T12:36:29.844Z,97353.66
2022-09-06T12:38:59.421Z,97347.34
2022-09-06T12:41:28.417Z,97343.66
2022-09-06T12:43:58.308Z,97342.72
2022-09-06T12:46:26.768Z,97335.59
2022-09-06T12:49:02.368Z,97325.59
2022-09-06T12:51:31.917Z,97329.91
2022-09-06T12:54:00.847Z,97320.97
2022-09-06T12:56:29.516Z,97320.97
2022-09-06T12:59:14.547Z,97322.69
2022-09-06T13:01:43.035Z,97328.84
2022-09-06T13:04:12.033Z,97313.53
2022-09-06T13:06:43.272Z,97315.28
2022-09-06T13:09:12.641Z,97314.22
2022-09-06T13:11:44.137Z,97315.81
2022-09-06T13:14:14.509Z,97311.16
2022-09-06T13:16:45.283Z,97310.97
2022-09-06T13:19:14.412Z,97309.03
2022-09-06T13:21:44.855Z,97312.59
2022-09-06T13:24:20.037Z,97309.78
2022-09-06T13:26:48.432Z,97310.66
2022-09-06T13:29:27.404Z,97306.22
2022-09-06T13:31:57.032Z,97307.09
2022-09-06T13:34:26.363Z,97303.53
2022-09-06T13:36:57.554Z,97305.34
2022-09-06T13:39:35.484Z,97299.03
2022-09-06T13:42:05.955Z,97298.16
2022-09-06T13:44:34.518Z,97296.22
2022-09-06T13:47:02.708Z,97294.28
2022-09-06T13:49:30.835Z,97289.66
2022-09-06T13:52:02.087Z,97300.41
2022-09-06T13:54:30.812Z,97291.38
2022-09-06T13:56:59.044Z,97293.09
2022-09-06T13:59:27.185Z,97291.28
2022-09-06T14:02:00.603Z,97286.84
2022-09-06T14:04:28.976Z,97276.94
2022-09-06T14:06:57.448Z,97274.91
2022-09-06T14:09:26.985Z,97272.13
2022-09-06T14:11:55.206Z,97275.56
2022-09-06T14:14:23.388Z,97281.78
2022-09-06T14:16:51.557Z,97283.63
2022-09-06T14:19:19.764Z,97285.47
2022-09-06T14:21:47.904Z,97289.84
2022-09-06T14:24:16.228Z,97282.66
2022-09-06T14:26:45.767Z,97288.03
2022-09-06T14:29:13.863Z,97287.06
2022-09-06T14:31:42.089Z,97282.66
2022-09-06T14:34:10.354Z,97284.47
2022-09-06T14:36:38.633Z,97289.00
2022-09-06T14:39:06.755Z,97289.84
2022-09-06T14:41:35.069Z,97278.34
2022-09-06T14:44:04.824Z,97282.78
2022-09-06T14:46:33.068Z,97275.66
2022-09-06T14:49:02.770Z,97279.22
2022-09-06T14:51:31.110Z,97277.38
2022-09-06T14:54:00.613Z,97269.31
2022-09-06T14:56:29.480Z,97267.50
2022-09-06T14:58:59.824Z,97270.06
2022-09-06T15:01:34.167Z,97262.00
2022-09-06T15:04:06.017Z,97269.19
2022-09-06T15:06:34.988Z,97274.56
2022-09-06T15:09:03.133Z,97269.19
2022-09-06T15:11:32.496Z,97271.88
2022-09-06T15:14:00.700Z,97274.69
2022-09-06T15:16:30.301Z,97272.75
2022-09-06T15:18:58.447Z,97272.75
2022-09-06T15:21:26.914Z,97272.63
2022-09-06T15:23:55.099Z,97276.06
2022-09-06T15:26:23.284Z,97276.06
2022-09-06T15:28:51.990Z,97284.16
2022-09-06T15:31:20.477Z,97280.50
2022-09-06T15:33:51.292Z,97279.63
2022-09-06T15:36:19.633Z,97273.38
2022-09-06T15:38:48.496Z,97280.50
2022-09-06T15:41:17.875Z,97272.44
2022-09-06T15:43:47.481Z,97277.81
2022-09-06T15:46:15.773Z,97278.66
2022-09-06T15:48:44.725Z,97274.25
2022-09-06T15:51:15.963Z,97276.94
2022-09-06T15:53:44.340Z,97279.63
2022-09-06T15:56:13.988Z,97277.81
2022-09-06T15:58:42.131Z,97275.13
2022-09-06T16:01:11.600Z,97270.69
2022-09-06T16:03:40.553Z,97270.69
2022-09-06T16:06:25.307Z,97271.69
2022-09-06T16:08:58.485Z,97271.69
2022-09-06T16:11:27.668Z,97267.13
2022-09-06T16:13:55.803Z,97270.81
2022-09-06T16:16:24.295Z,97266.28
2022-09-06T16:18:53.222Z,97271.69
2022-09-06T16:21:24.022Z,97276.94
2022-09-06T16:23:52.892Z,97283.28
2022-09-06T16:26:22.923Z,97284.28
2022-09-06T16:28:51.726Z,97281.47
2022-09-06T16:31:20.692Z,97281.47
2022-09-06T16:33:49.221Z,97283.28
2022-09-06T16:36:17.487Z,97285.03
2022-09-06T16:38:45.630Z,97289.53
2022-09-06T16:41:15.665Z,97285.97
2022-09-06T16:43:45.324Z,97292.22
2022-09-06T16:46:13.701Z,97285.97
2022-09-06T16:48:41.897Z,97283.41
2022-09-06T16:51:11.296Z,97284.28
2022-09-06T16:53:40.848Z,97283.41
2022-09-06T16:56:09.451Z,97277.16
2022-09-06T16:58:39.157Z,97278.03
2022-09-06T17:01:09.663Z,97275.31
2022-09-06T17:03:37.920Z,97269.94
2022-09-06T17:06:06.877Z,97275.31
2022-09-06T17:08:35.200Z,97274.47
2022-09-06T17:11:03.629Z,97270.94
2022-09-06T17:13:32.361Z,97269.06
2022-09-06T17:16:21.848Z,97270.06
2022-09-06T17:18:53.789Z,97276.31
2022-09-06T17:21:22.465Z,97265.56
2022-09-06T17:23:51.252Z,97269.19
2022-09-06T17:26:19.801Z,97270.06
2022-09-06T17:28:48.228Z,97267.50
2022-09-06T17:31:16.684Z,97267.50
2022-09-06T17:33:46.893Z,97267.56
2022-09-06T17:36:21.377Z,97266.63
2022-09-06T17:38:53.296Z,97272.00
2022-09-06T17:41:24.343Z,97277.50
2022-09-06T17:43:54.380Z,97280.19
2022-09-06T17:46:27.917Z,97283.63
2022-09-06T17:48:57.357Z,97290.72
2022-09-06T17:51:27.140Z,97294.41
2022-09-06T17:53:55.433Z,97288.16
2022-09-06T17:56:24.269Z,97295.22
2022-09-06T17:58:56.268Z,97289.84
2022-09-06T18:01:25.251Z,97289.00
2022-09-06T18:03:54.884Z,97290.72
2022-09-06T18:06:25.133Z,97291.59
2022-09-06T18:08:56.744Z,97291.59
2022-09-06T18:11:26.269Z,97293.41
2022-09-06T18:13:59.513Z,97289.84
2022-09-06T18:16:28.003Z,97292.53
2022-09-06T18:18:58.061Z,97307.84
2022-09-06T18:21:26.804Z,97306.88
2022-09-06T18:23:56.844Z,97309.56
2022-09-06T18:26:25.121Z,97321.31
2022-09-06T18:28:54.116Z,97327.53
2022-09-06T18:31:23.347Z,97329.28
2022-09-06T18:33:51.611Z,97331.09
2022-09-06T18:36:19.855Z,97340.16
2022-09-06T18:38:47.959Z,97344.66
2022-09-06T18:41:35.175Z,97352.84
2022-09-06T18:44:03.689Z,97353.69
2022-09-06T18:46:32.151Z,97354.66
2022-09-06T18:49:00.546Z,97354.66
2022-09-06T18:51:28.769Z,97365.56
2022-09-06T18:53:57.096Z,97355.63
2022-09-06T18:56:27.574Z,97372.75
2022-09-06T18:58:58.377Z,97390.72
2022-09-06T19:01:27.980Z,97387.28
2022-09-06T19:03:57.608Z,97390.84
2022-09-06T19:06:26.241Z,97397.16
2022-09-06T19:08:55.421Z,97389.09
2022-09-06T19:11:23.972Z,97397.16
2022-09-06T19:13:55.622Z,97398.03
2022-09-06T19:16:24.971Z,97403.41
2022-09-06T19:18:56.129Z,97408.81
2022-09-06T19:21:27.934Z,97414.19
2022-09-06T19:23:57.511Z,97414.19
2022-09-06T19:26:27.429Z,97420.56
2022-09-06T19:28:58.743Z,97417.84
2022-09-06T19:31:28.399Z,97410.75
2022-09-06T19:33:57.243Z,97411.59
2022-09-06T19:36:26.569Z,97418.81
2022-09-06T19:39:05.005Z,97413.44
2022-09-06T19:41:34.903Z,97424.31
2022-09-06T19:44:05.956Z,97435.06
2022-09-06T19:46:35.371Z,97442.28
2022-09-06T19:49:03.853Z,97444.09
2022-09-06T19:51:33.225Z,97451.31
2022-09-06T19:54:01.604Z,97452.28
2022-09-06T19:56:32.760Z,97461.22
2022-09-06T19:59:01.819Z,97448.81
2022-09-06T20:01:32.781Z,97454.22
2022-09-06T20:04:02.944Z,97450.56
2022-09-06T20:06:31.646Z,97458.63
2022-09-06T20:09:00.471Z,97440.66
2022-09-06T20:11:29.641Z,97448.72
2022-09-06T20:13:58.150Z,97439.81
2022-09-06T20:16:26.779Z,97438.81
2022-09-06T20:18:57.114Z,97437.88
2022-09-06T20:21:26.552Z,97437.94
2022-09-06T20:23:56.170Z,97449.59
2022-09-06T20:26:25.259Z,97452.28
2022-09-06T20:28:56.284Z,97451.41
2022-09-06T20:31:25.118Z,97454.09
2022-09-06T20:33:53.923Z,97451.41
2022-09-06T20:36:24.402Z,97457.78
2022-09-06T20:38:53.158Z,97455.09
2022-09-06T20:41:23.069Z,97462.28
2022-09-06T20:43:52.802Z,97466.72
2022-09-06T20:46:22.697Z,97460.47
2022-09-06T20:48:51.941Z,97464.03
2022-09-06T20:51:21.241Z,97465.84
2022-09-06T20:53:53.120Z,97459.59
2022-09-06T20:56:22.276Z,97460.47
2022-09-06T20:58:50.995Z,97461.34
2022-09-06T21:01:22.707Z,97460.47
2022-09-06T21:03:52.147Z,97458.63
2022-09-06T21:06:20.979Z,97459.47
2022-09-06T21:08:50.844Z,97470.25
2022-09-06T21:11:22.337Z,97479.28
2022-09-06T21:13:51.315Z,97484.69
2022-09-06T21:16:24.271Z,97489.19
2022-09-06T21:18:52.957Z,97484.69
2022-09-06T21:21:21.939Z,97490.94
2022-09-06T21:23:51.819Z,97476.59
2022-09-06T21:26:20.303Z,97474.88
2022-09-06T21:28:49.195Z,97480.25
2022-09-06T21:31:18.393Z,97468.66
2022-09-06T21:33:48.156Z,97467.66
2022-09-06T21:36:17.345Z,97475.84
2022-09-06T21:38:46.402Z,97479.41
2022-09-06T21:41:17.112Z,97479.41
2022-09-06T21:43:45.594Z,97472.28
2022-09-06T21:46:14.817Z,97475.84
2022-09-06T21:48:44.991Z,97469.59
2022-09-06T21:51:14.319Z,97475.84
2022-09-06T21:53:44.339Z,97480.47
2022-09-06T21:56:12.997Z,97480.34
2022-09-06T21:58:44.412Z,97488.53
2022-09-06T22:01:12.801Z,97491.22
2022-09-06T22:03:41.693Z,97481.41
2022-09-06T22:06:10.419Z,97489.50
2022-09-06T22:08:39.360Z,97483.28
2022-09-06T22:11:11.360Z,97477.88
2022-09-06T22:13:39.749Z,97478.84
2022-09-06T22:16:10.078Z,97475.19
2022-09-06T22:18:38.459Z,97465.38
2022-09-06T22:21:07.799Z,97455.59
2022-09-06T22:23:36.453Z,97451.06
2022-09-06T22:26:05.156Z,97450.22
2022-09-06T22:28:33.755Z,97445.69
2022-09-06T22:31:02.379Z,97435.91
2022-09-06T22:33:33.452Z,97435.91
2022-09-06T22:36:01.732Z,97418.91
2022-09-06T22:38:30.106Z,97432.34
2022-09-06T22:40:58.676Z,97429.75
2022-09-06T22:43:26.996Z,97426.09
2022-09-06T22:45:55.389Z,97419.00
2022-09-06T22:48:23.691Z,97419.00
2022-09-06T22:50:53.486Z,97426.22
2022-09-06T22:53:21.767Z,97415.44
2022-09-06T22:55:50.028Z,97404.69
2022-09-06T22:58:18.375Z,97402.00
2022-09-06T23:00:46.746Z,97404.69
2022-09-06T23:03:15.367Z,97390.38
2022-09-06T23:05:43.812Z,97398.44
2022-09-06T23:08:13.697Z,97394.91
2022-09-06T23:10:42.548Z,97394.91
2022-09-06T23:13:10.873Z,97389.53
2022-09-06T23:15:41.092Z,97385.09
2022-09-06T23:18:09.587Z,97394.03
2022-09-06T23:20:38.457Z,97401.25
2022-09-06T23:23:07.217Z,97393.16
2022-09-06T23:25:39.508Z,97394.16
2022-09-06T23:28:07.918Z,97380.69
2022-09-06T23:30:38.201Z,97376.16
2022-09-06T23:33:06.627Z,97370.88
2022-09-06T23:35:34.931Z,97364.56
2022-09-06T23:38:03.246Z,97364.56
2022-09-06T23:40:31.482Z,97352.94
2022-09-06T23:43:01.473Z,97352.94
2022-09-06T23:45:29.861Z,97352.94
2022-09-06T23:47:58.235Z,97356.56
2022-09-06T23:50:26.715Z,97349.38
2022-09-06T23:52:54.971Z,97341.41
2022-09-06T23:55:23.289Z,97347.66
2022-09-06T23:57:51.655Z,97339.59
